sensor_id;sensor_type;location;lat;lon;timestamp;pressure;altitude;pressure_sealevel;temperature;humidity
2192;BME280;1102;49.718;11.902;2023-04-02T00:00:34;95301.78;;;6.36;100.00
2192;BME280;1102;49.718;11.902;2023-04-02T00:03:06;95268.03;;;6.14;100.00
2192;BME280;1102;49.718;11.902;2023-04-02T00:05:41;95324.78;;;6.51;100.00
2192;BME280;1102;49.718;11.902;2023-04-02T00:08:19;95327.84;;;6.53;100.00
2192;BME280;1102;49.718;11.902;2023-04-02T00:10:56;95320.25;;;6.40;100.00
2192;BME280;1102;49.718;11.902;2023-04-02T00:13:38;95339.78;;;6.51;100.00
2192;BME280;1102;49.718;11.902;2023-04-02T00:16:11;95288.81;;;6.19;100.00
2192;BME280;1102;49.718;11.902;2023-04-02T00:18:45;95339.78;;;6.51;100.00
2192;BME280;1102;49.718;11.902;2023-04-02T00:21:20;95346.56;;;6.52;100.00
2192;BME280;1102;49.718;11.902;2023-04-02T00:23:48;95343.38;;;6.46;100.00
2192;BME280;1102;49.718;11.902;2023-04-02T00:26:36;95344.47;;;6.45;100.00
2192;BME280;1102;49.718;11.902;2023-04-02T00:29:04;95345.56;;;6.44;100.00
2192;BME280;1102;49.718;11.902;2023-04-02T00:31:33;95355.94;;;6.41;100.00
2192;BME280;1102;49.718;11.902;2023-04-02T00:34:03;95330.72;;;6.28;100.00
2192;BME280;1102;49.718;11.902;2023-04-02T00:36:33;95339.34;;;6.16;100.00
2192;BME280;1102;49.718;11.902;2023-04-02T00:39:02;95329.06;;;6.23;100.00
2192;BME280;1102;49.718;11.902;2023-04-02T00:41:31;95298.50;;;6.06;100.00
2192;BME280;1102;49.718;11.902;2023-04-02T00:44:02;95343.44;;;6.38;100.00
2192;BME280;1102;49.718;11.902;2023-04-02T00:46:31;95324.91;;;6.22;100.00
2192;BME280;1102;49.718;11.902;2023-04-02T00:49:06;95354.41;;;6.40;100.00
2192;BME280;1102;49.718;11.902;2023-04-02T00:51:41;95317.84;;;6.02;100.00
2192;BME280;1102;49.718;11.902;2023-04-02T00:54:11;95334.41;;;6.14;100.00
2192;BME280;1102;49.718;11.902;2023-04-02T00:56:44;95359.41;;;6.33;100.00
2192;BME280;1102;49.718;11.902;2023-04-02T00:59:32;95362.81;;;6.33;100.00
2192;BME280;1102;49.718;11.902;2023-04-02T01:02:20;95344.25;;;6.17;100.00
2192;BME280;1102;49.718;11.902;2023-04-02T01:13:14;95363.31;;;6.27;100.00
2192;BME280;1102;49.718;11.902;2023-04-02T01:24:31;95310.84;;;5.85;100.00
2192;BME280;1102;49.718;11.902;2023-04-02T01:27:01;95365.38;;;6.21;100.00
2192;BME280;1102;49.718;11.902;2023-04-02T01:29:34;95368.44;;;6.23;100.00
2192;BME280;1102;49.718;11.902;2023-04-02T01:32:06;95365.50;;;6.25;100.00
2192;BME280;1102;49.718;11.902;2023-04-02T01:34:35;95344.97;;;6.06;100.00
2192;BME280;1102;49.718;11.902;2023-04-02T01:37:25;95372.59;;;6.24;100.00
2192;BME280;1102;49.718;11.902;2023-04-02T01:40:14;95355.16;;;6.07;100.00
2192;BME280;1102;49.718;11.902;2023-04-02T01:45:33;95336.13;;;5.89;100.00
2192;BME280;1102;49.718;11.902;2023-04-02T01:48:08;95352.00;;;5.93;100.00
2192;BME280;1102;49.718;11.902;2023-04-02T01:50:40;95345.78;;;5.98;100.00
2192;BME280;1102;49.718;11.902;2023-04-02T01:53:14;95378.56;;;6.12;100.00
2192;BME280;1102;49.718;11.902;2023-04-02T01:58:11;95385.97;;;6.10;100.00
2192;BME280;1102;49.718;11.902;2023-04-02T02:01:02;95380.81;;;6.02;100.00
2192;BME280;1102;49.718;11.902;2023-04-02T02:03:32;95375.31;;;5.95;100.00
2192;BME280;1102;49.718;11.902;2023-04-02T02:06:02;95359.00;;;5.80;100.00
2192;BME280;1102;49.718;11.902;2023-04-02T02:08:37;95364.38;;;5.92;100.00
2192;BME280;1102;49.718;11.902;2023-04-02T02:11:09;95393.03;;;6.18;100.00
2192;BME280;1102;49.718;11.902;2023-04-02T02:13:37;95363.84;;;5.99;100.00
2192;BME280;1102;49.718;11.902;2023-04-02T02:16:09;95382.88;;;6.17;100.00
2192;BME280;1102;49.718;11.902;2023-04-02T02:18:40;95404.47;;;6.35;100.00
2192;BME280;1102;49.718;11.902;2023-04-02T02:21:08;95377.16;;;6.15;100.00
2192;BME280;1102;49.718;11.902;2023-04-02T02:23:35;95410.16;;;6.37;100.00
2192;BME280;1102;49.718;11.902;2023-04-02T02:26:04;95418.44;;;6.47;100.00
2192;BME280;1102;49.718;11.902;2023-04-02T02:28:32;95407.88;;;6.35;100.00
2192;BME280;1102;49.718;11.902;2023-04-02T02:31:11;95416.44;;;6.44;100.00
2192;BME280;1102;49.718;11.902;2023-04-02T02:33:53;95415.25;;;6.42;100.00
2192;BME280;1102;49.718;11.902;2023-04-02T02:36:41;95430.25;;;6.53;100.00
2192;BME280;1102;49.718;11.902;2023-04-02T02:39:18;95424.13;;;6.49;100.00
2192;BME280;1102;49.718;11.902;2023-04-02T02:41:55;95416.19;;;6.37;100.00
2192;BME280;1102;49.718;11.902;2023-04-02T02:47:00;95435.28;;;6.46;100.00
2192;BME280;1102;49.718;11.902;2023-04-02T02:49:34;95413.06;;;6.23;100.00
2192;BME280;1102;49.718;11.902;2023-04-02T02:52:18;95434.63;;;6.49;100.00
2192;BME280;1102;49.718;11.902;2023-04-02T02:55:05;95436.47;;;6.49;100.00
2192;BME280;1102;49.718;11.902;2023-04-02T02:57:52;95445.44;;;6.48;100.00
2192;BME280;1102;49.718;11.902;2023-04-02T03:00:24;95446.97;;;6.49;100.00
2192;BME280;1102;49.718;11.902;2023-04-02T03:02:53;95440.59;;;6.38;100.00
2192;BME280;1102;49.718;11.902;2023-04-02T03:05:26;95414.28;;;6.26;100.00
2192;BME280;1102;49.718;11.902;2023-04-02T03:07:57;95427.06;;;6.27;100.00
2192;BME280;1102;49.718;11.902;2023-04-02T03:10:36;95446.88;;;6.45;100.00
2192;BME280;1102;49.718;11.902;2023-04-02T03:13:25;95450.69;;;6.48;100.00
2192;BME280;1102;49.718;11.902;2023-04-02T03:24:45;95472.16;;;6.50;100.00
2192;BME280;1102;49.718;11.902;2023-04-02T03:27:22;95456.47;;;6.41;100.00
2192;BME280;1102;49.718;11.902;2023-04-02T03:33:02;95470.38;;;6.42;100.00
2192;BME280;1102;49.718;11.902;2023-04-02T03:35:35;95462.66;;;6.37;100.00
2192;BME280;1102;49.718;11.902;2023-04-02T03:38:43;95475.63;;;6.42;100.00
2192;BME280;1102;49.718;11.902;2023-04-02T03:41:19;95454.94;;;6.19;100.00
2192;BME280;1102;49.718;11.902;2023-04-02T03:43:57;95483.09;;;6.31;100.00
2192;BME280;1102;49.718;11.902;2023-04-02T03:46:43;95464.66;;;6.19;100.00
2192;BME280;1102;49.718;11.902;2023-04-02T03:49:24;95450.16;;;6.13;100.00
2192;BME280;1102;49.718;11.902;2023-04-02T03:52:09;95489.69;;;6.37;100.00
2192;BME280;1102;49.718;11.902;2023-04-02T03:54:39;95477.22;;;6.34;100.00
2192;BME280;1102;49.718;11.902;2023-04-02T03:57:33;95488.59;;;6.38;100.00
2192;BME280;1102;49.718;11.902;2023-04-02T04:00:07;95466.75;;;6.26;100.00
2192;BME280;1102;49.718;11.902;2023-04-02T04:02:52;95468.38;;;6.18;100.00
2192;BME280;1102;49.718;11.902;2023-04-02T04:05:27;95497.13;;;6.35;100.00
2192;BME280;1102;49.718;11.902;2023-04-02T04:08:04;95492.53;;;6.32;100.00
2192;BME280;1102;49.718;11.902;2023-04-02T04:10:33;95477.19;;;6.13;100.00
2192;BME280;1102;49.718;11.902;2023-04-02T04:13:08;95471.06;;;6.01;100.00
2192;BME280;1102;49.718;11.902;2023-04-02T04:15:50;95495.47;;;6.01;100.00
2192;BME280;1102;49.718;11.902;2023-04-02T04:18:28;95502.97;;;6.11;100.00
2192;BME280;1102;49.718;11.902;2023-04-02T04:21:13;95503.63;;;6.08;100.00
2192;BME280;1102;49.718;11.902;2023-04-02T04:23:46;95506.09;;;6.05;100.00
2192;BME280;1102;49.718;11.902;2023-04-02T04:29:38;95509.22;;;5.98;100.00
2192;BME280;1102;49.718;11.902;2023-04-02T04:32:21;95513.22;;;6.04;100.00
2192;BME280;1102;49.718;11.902;2023-04-02T04:35:22;95511.72;;;5.95;100.00
2192;BME280;1102;49.718;11.902;2023-04-02T04:37:48;95524.41;;;6.13;100.00
2192;BME280;1102;49.718;11.902;2023-04-02T04:40:21;95525.88;;;6.32;100.00
2192;BME280;1102;49.718;11.902;2023-04-02T04:42:56;95524.13;;;6.36;100.00
2192;BME280;1102;49.718;11.902;2023-04-02T04:45:53;95542.06;;;6.34;100.00
2192;BME280;1102;49.718;11.902;2023-04-02T04:48:53;95537.47;;;6.31;100.00
2192;BME280;1102;49.718;11.902;2023-04-02T04:51:34;95529.19;;;6.20;100.00
2192;BME280;1102;49.718;11.902;2023-04-02T04:54:03;95530.44;;;6.14;100.00
2192;BME280;1102;49.718;11.902;2023-04-02T04:56:33;95508.75;;;5.96;100.00
2192;BME280;1102;49.718;11.902;2023-04-02T04:59:28;95564.41;;;6.10;100.00
2192;BME280;1102;49.718;11.902;2023-04-02T05:02:05;95558.25;;;6.06;100.00
2192;BME280;1102;49.718;11.902;2023-04-02T05:04:38;95557.94;;;6.08;100.00
2192;BME280;1102;49.718;11.902;2023-04-02T05:16:10;95587.75;;;6.41;100.00
2192;BME280;1102;49.718;11.902;2023-04-02T05:21:23;95600.69;;;6.46;100.00
2192;BME280;1102;49.718;11.902;2023-04-02T05:26:38;95557.81;;;6.04;100.00
2192;BME280;1102;49.718;11.902;2023-04-02T05:29:16;95562.22;;;6.21;100.00
2192;BME280;1102;49.718;11.902;2023-04-02T05:34:34;95573.00;;;6.28;100.00
2192;BME280;1102;49.718;11.902;2023-04-02T05:37:04;95616.31;;;6.43;100.00
2192;BME280;1102;49.718;11.902;2023-04-02T05:39:33;95624.41;;;6.59;100.00
2192;BME280;1102;49.718;11.902;2023-04-02T05:42:06;95564.03;;;6.29;100.00
2192;BME280;1102;49.718;11.902;2023-04-02T05:47:29;95632.41;;;6.62;100.00
2192;BME280;1102;49.718;11.902;2023-04-02T05:52:41;95603.13;;;6.13;100.00
2192;BME280;1102;49.718;11.902;2023-04-02T05:58:03;95614.19;;;5.81;100.00
2192;BME280;1102;49.718;11.902;2023-04-02T06:03:58;95645.84;;;5.58;100.00
2192;BME280;1102;49.718;11.902;2023-04-02T06:09:32;95635.53;;;5.27;100.00
2192;BME280;1102;49.718;11.902;2023-04-02T06:14:36;95672.56;;;5.34;100.00
2192;BME280;1102;49.718;11.902;2023-04-02T06:17:03;95667.75;;;5.28;100.00
2192;BME280;1102;49.718;11.902;2023-04-02T06:19:35;95676.84;;;5.30;100.00
2192;BME280;1102;49.718;11.902;2023-04-02T06:22:23;95675.31;;;5.29;100.00
2192;BME280;1102;49.718;11.902;2023-04-02T06:25:00;95642.72;;;4.79;100.00
2192;BME280;1102;49.718;11.902;2023-04-02T06:27:34;95637.03;;;4.68;100.00
2192;BME280;1102;49.718;11.902;2023-04-02T06:30:04;95680.53;;;4.95;100.00
2192;BME280;1102;49.718;11.902;2023-04-02T06:32:32;95690.03;;;4.82;100.00
2192;BME280;1102;49.718;11.902;2023-04-02T06:34:59;95676.31;;;4.68;100.00
2192;BME280;1102;49.718;11.902;2023-04-02T06:37:33;95683.84;;;4.69;100.00
2192;BME280;1102;49.718;11.902;2023-04-02T06:40:36;95730.28;;;4.95;100.00
2192;BME280;1102;49.718;11.902;2023-04-02T06:43:32;95705.00;;;4.82;100.00
2192;BME280;1102;49.718;11.902;2023-04-02T06:52:12;95715.22;;;4.61;100.00
2192;BME280;1102;49.718;11.902;2023-04-02T06:54:40;95696.66;;;4.40;100.00
2192;BME280;1102;49.718;11.902;2023-04-02T06:57:09;95687.09;;;4.35;100.00
2192;BME280;1102;49.718;11.902;2023-04-02T06:59:43;95750.28;;;4.82;100.00
2192;BME280;1102;49.718;11.902;2023-04-02T07:02:23;95766.00;;;4.91;100.00
2192;BME280;1102;49.718;11.902;2023-04-02T07:04:57;95769.03;;;4.75;100.00
2192;BME280;1102;49.718;11.902;2023-04-02T07:07:26;95757.16;;;4.69;100.00
2192;BME280;1102;49.718;11.902;2023-04-02T07:09:53;95757.28;;;4.64;100.00
2192;BME280;1102;49.718;11.902;2023-04-02T07:12:23;95776.16;;;4.84;100.00
2192;BME280;1102;49.718;11.902;2023-04-02T07:14:51;95712.25;;;4.45;100.00
2192;BME280;1102;49.718;11.902;2023-04-02T07:17:19;95729.19;;;4.48;100.00
2192;BME280;1102;49.718;11.902;2023-04-02T07:19:47;95728.66;;;4.37;100.00
2192;BME280;1102;49.718;11.902;2023-04-02T07:22:20;95766.00;;;4.51;100.00
2192;BME280;1102;49.718;11.902;2023-04-02T07:24:52;95781.44;;;4.61;100.00
2192;BME280;1102;49.718;11.902;2023-04-02T07:27:19;95807.41;;;4.80;100.00
2192;BME280;1102;49.718;11.902;2023-04-02T07:29:45;95770.03;;;4.57;100.00
2192;BME280;1102;49.718;11.902;2023-04-02T07:32:12;95775.44;;;4.61;100.00
2192;BME280;1102;49.718;11.902;2023-04-02T07:34:40;95829.22;;;4.98;100.00
2192;BME280;1102;49.718;11.902;2023-04-02T07:37:10;95841.22;;;4.99;100.00
2192;BME280;1102;49.718;11.902;2023-04-02T07:39:38;95652.84;;;3.83;100.00
2192;BME280;1102;49.718;11.902;2023-04-02T07:42:06;95797.88;;;4.53;100.00
2192;BME280;1102;49.718;11.902;2023-04-02T07:44:33;95854.75;;;4.92;100.00
2192;BME280;1102;49.718;11.902;2023-04-02T07:47:00;95831.53;;;4.68;100.00
2192;BME280;1102;49.718;11.902;2023-04-02T07:49:27;95814.63;;;4.74;100.00
2192;BME280;1102;49.718;11.902;2023-04-02T07:51:53;95858.13;;;4.93;100.00
2192;BME280;1102;49.718;11.902;2023-04-02T07:54:20;95821.72;;;4.52;100.00
2192;BME280;1102;49.718;11.902;2023-04-02T07:56:47;95839.28;;;4.51;100.00
2192;BME280;1102;49.718;11.902;2023-04-02T07:59:13;95891.03;;;4.77;100.00
2192;BME280;1102;49.718;11.902;2023-04-02T08:01:40;95834.47;;;4.44;100.00
2192;BME280;1102;49.718;11.902;2023-04-02T08:04:16;95886.72;;;4.81;100.00
2192;BME280;1102;49.718;11.902;2023-04-02T08:06:44;95857.03;;;4.54;100.00
2192;BME280;1102;49.718;11.902;2023-04-02T08:09:11;95892.03;;;4.89;100.00
2192;BME280;1102;49.718;11.902;2023-04-02T08:11:37;95880.72;;;4.80;100.00
2192;BME280;1102;49.718;11.902;2023-04-02T08:14:04;95903.34;;;4.76;100.00
2192;BME280;1102;49.718;11.902;2023-04-02T08:16:52;95863.31;;;4.53;100.00
2192;BME280;1102;49.718;11.902;2023-04-02T08:19:19;95895.78;;;4.52;100.00
2192;BME280;1102;49.718;11.902;2023-04-02T08:21:46;95922.50;;;4.85;100.00
2192;BME280;1102;49.718;11.902;2023-04-02T08:24:20;95929.13;;;4.83;100.00
2192;BME280;1102;49.718;11.902;2023-04-02T08:26:48;95910.66;;;4.88;100.00
2192;BME280;1102;49.718;11.902;2023-04-02T08:29:14;95945.31;;;4.85;100.00
2192;BME280;1102;49.718;11.902;2023-04-02T08:31:41;95938.63;;;4.79;100.00
2192;BME280;1102;49.718;11.902;2023-04-02T08:34:08;95939.47;;;4.65;100.00
2192;BME280;1102;49.718;11.902;2023-04-02T08:36:38;95928.53;;;4.41;100.00
2192;BME280;1102;49.718;11.902;2023-04-02T08:39:07;95861.59;;;4.26;100.00
2192;BME280;1102;49.718;11.902;2023-04-02T08:41:43;95956.72;;;4.89;100.00
2192;BME280;1102;49.718;11.902;2023-04-02T08:44:38;95963.59;;;4.98;100.00
2192;BME280;1102;49.718;11.902;2023-04-02T08:47:09;95943.59;;;4.58;100.00
2192;BME280;1102;49.718;11.902;2023-04-02T08:49:42;95970.06;;;4.56;100.00
2192;BME280;1102;49.718;11.902;2023-04-02T08:52:19;95968.47;;;4.69;100.00
2192;BME280;1102;49.718;11.902;2023-04-02T08:54:47;95968.38;;;4.60;100.00
2192;BME280;1102;49.718;11.902;2023-04-02T09:00:05;95988.59;;;4.82;100.00
2192;BME280;1102;49.718;11.902;2023-04-02T09:05:05;95983.97;;;4.65;100.00
2192;BME280;1102;49.718;11.902;2023-04-02T09:07:33;95994.75;;;4.64;100.00
2192;BME280;1102;49.718;11.902;2023-04-02T09:10:00;96001.47;;;4.79;100.00
2192;BME280;1102;49.718;11.902;2023-04-02T09:12:29;96010.06;;;4.70;100.00
2192;BME280;1102;49.718;11.902;2023-04-02T09:17:36;96001.22;;;4.66;100.00
2192;BME280;1102;49.718;11.902;2023-04-02T09:20:24;95979.63;;;4.11;100.00
2192;BME280;1102;49.718;11.902;2023-04-02T09:22:55;96008.69;;;4.37;100.00
2192;BME280;1102;49.718;11.902;2023-04-02T09:25:25;96007.28;;;4.53;100.00
2192;BME280;1102;49.718;11.902;2023-04-02T09:27:54;96024.81;;;4.53;100.00
2192;BME280;1102;49.718;11.902;2023-04-02T09:33:00;96025.81;;;4.57;100.00
2192;BME280;1102;49.718;11.902;2023-04-02T09:35:30;96066.13;;;4.69;100.00
2192;BME280;1102;49.718;11.902;2023-04-02T09:43:18;96070.81;;;4.45;100.00
2192;BME280;1102;49.718;11.902;2023-04-02T09:48:31;96054.22;;;4.36;100.00
2192;BME280;1102;49.718;11.902;2023-04-02T09:51:21;96090.41;;;4.34;100.00
2192;BME280;1102;49.718;11.902;2023-04-02T09:53:50;96076.06;;;4.31;100.00
2192;BME280;1102;49.718;11.902;2023-04-02T09:56:35;96101.91;;;4.47;100.00
2192;BME280;1102;49.718;11.902;2023-04-02T10:07:00;96123.53;;;4.11;100.00
2192;BME280;1102;49.718;11.902;2023-04-02T10:09:33;96098.72;;;4.08;100.00
2192;BME280;1102;49.718;11.902;2023-04-02T10:12:04;96079.53;;;3.99;100.00
2192;BME280;1102;49.718;11.902;2023-04-02T10:14:35;96103.66;;;3.96;100.00
2192;BME280;1102;49.718;11.902;2023-04-02T10:19:44;96117.13;;;3.90;100.00
2192;BME280;1102;49.718;11.902;2023-04-02T10:22:16;96130.59;;;4.10;100.00
2192;BME280;1102;49.718;11.902;2023-04-02T10:24:43;96127.03;;;4.20;100.00
2192;BME280;1102;49.718;11.902;2023-04-02T10:30:19;96145.22;;;4.11;100.00
2192;BME280;1102;49.718;11.902;2023-04-02T10:38:36;96145.81;;;4.36;100.00
2192;BME280;1102;49.718;11.902;2023-04-02T10:41:21;96123.75;;;4.28;100.00
2192;BME280;1102;49.718;11.902;2023-04-02T10:44:15;96144.94;;;4.40;100.00
2192;BME280;1102;49.718;11.902;2023-04-02T10:47:08;96155.63;;;4.71;100.00
2192;BME280;1102;49.718;11.902;2023-04-02T10:49:41;96182.28;;;4.46;100.00
2192;BME280;1102;49.718;11.902;2023-04-02T10:54:48;96107.16;;;4.05;100.00
2192;BME280;1102;49.718;11.902;2023-04-02T11:00:19;96188.00;;;4.62;100.00
2192;BME280;1102;49.718;11.902;2023-04-02T11:03:03;96185.41;;;4.62;100.00
2192;BME280;1102;49.718;11.902;2023-04-02T11:05:42;96176.88;;;4.42;100.00
2192;BME280;1102;49.718;11.902;2023-04-02T11:11:04;96201.28;;;4.93;100.00
2192;BME280;1102;49.718;11.902;2023-04-02T11:13:55;96191.13;;;4.64;100.00
2192;BME280;1102;49.718;11.902;2023-04-02T11:16:24;96227.38;;;4.98;100.00
2192;BME280;1102;49.718;11.902;2023-04-02T11:21:45;96233.28;;;5.03;100.00
2192;BME280;1102;49.718;11.902;2023-04-02T11:29:40;96251.16;;;5.01;100.00
2192;BME280;1102;49.718;11.902;2023-04-02T11:37:41;96264.13;;;4.65;100.00
2192;BME280;1102;49.718;11.902;2023-04-02T11:42:38;96269.06;;;4.53;100.00
2192;BME280;1102;49.718;11.902;2023-04-02T11:50:36;96282.03;;;4.44;100.00
2192;BME280;1102;49.718;11.902;2023-04-02T11:55:38;96257.94;;;4.15;100.00
2192;BME280;1102;49.718;11.902;2023-04-02T12:07:46;96283.91;;;4.25;100.00
2192;BME280;1102;49.718;11.902;2023-04-02T12:10:19;96306.91;;;4.28;100.00
2192;BME280;1102;49.718;11.902;2023-04-02T12:12:47;96271.22;;;4.00;100.00
2192;BME280;1102;49.718;11.902;2023-04-02T12:15:35;96317.66;;;4.27;100.00
2192;BME280;1102;49.718;11.902;2023-04-02T12:18:12;96309.16;;;4.35;100.00
2192;BME280;1102;49.718;11.902;2023-04-02T12:20:40;96319.75;;;4.43;100.00
2192;BME280;1102;49.718;11.902;2023-04-02T12:23:19;96295.84;;;3.99;100.00
2192;BME280;1102;49.718;11.902;2023-04-02T12:25:56;96324.72;;;4.26;100.00
2192;BME280;1102;49.718;11.902;2023-04-02T12:28:24;96323.16;;;4.25;100.00
2192;BME280;1102;49.718;11.902;2023-04-02T12:33:37;96345.59;;;4.31;100.00
2192;BME280;1102;49.718;11.902;2023-04-02T12:38:51;96357.06;;;4.17;100.00
2192;BME280;1102;49.718;11.902;2023-04-02T12:41:29;96347.16;;;3.95;100.00
2192;BME280;1102;49.718;11.902;2023-04-02T12:44:02;96331.31;;;3.86;100.00
2192;BME280;1102;49.718;11.902;2023-04-02T12:46:31;96339.16;;;3.86;100.00
2192;BME280;1102;49.718;11.902;2023-04-02T12:49:16;96369.91;;;4.13;100.00
2192;BME280;1102;49.718;11.902;2023-04-02T12:51:46;96304.41;;;3.67;100.00
2192;BME280;1102;49.718;11.902;2023-04-02T12:54:15;96373.25;;;4.00;100.00
2192;BME280;1102;49.718;11.902;2023-04-02T12:56:49;96379.75;;;4.21;100.00
2192;BME280;1102;49.718;11.902;2023-04-02T13:01:59;96377.13;;;4.21;100.00
2192;BME280;1102;49.718;11.902;2023-04-02T13:04:26;96362.84;;;4.13;100.00
2192;BME280;1102;49.718;11.902;2023-04-02T13:06:54;96385.19;;;4.43;100.00
2192;BME280;1102;49.718;11.902;2023-04-02T13:09:33;96385.06;;;4.35;100.00
2192;BME280;1102;49.718;11.902;2023-04-02T13:12:01;96384.00;;;4.36;100.00
2192;BME280;1102;49.718;11.902;2023-04-02T13:14:28;96392.84;;;4.21;100.00
2192;BME280;1102;49.718;11.902;2023-04-02T13:16:56;96393.63;;;4.22;100.00
2192;BME280;1102;49.718;11.902;2023-04-02T13:19:32;96355.09;;;3.90;100.00
2192;BME280;1102;49.718;11.902;2023-04-02T13:22:00;96410.38;;;4.21;100.00
2192;BME280;1102;49.718;11.902;2023-04-02T13:24:29;96376.00;;;4.08;100.00
2192;BME280;1102;49.718;11.902;2023-04-02T13:26:59;96412.56;;;4.32;100.00
2192;BME280;1102;49.718;11.902;2023-04-02T13:29:31;96356.94;;;3.89;100.00
2192;BME280;1102;49.718;11.902;2023-04-02T13:32:00;96390.34;;;3.92;100.00
2192;BME280;1102;49.718;11.902;2023-04-02T13:34:28;96408.13;;;4.14;100.00
2192;BME280;1102;49.718;11.902;2023-04-02T13:36:54;96411.84;;;4.27;100.00
2192;BME280;1102;49.718;11.902;2023-04-02T13:39:23;96426.84;;;4.21;100.00
2192;BME280;1102;49.718;11.902;2023-04-02T13:41:54;96380.19;;;3.91;100.00
2192;BME280;1102;49.718;11.902;2023-04-02T13:44:24;96414.19;;;4.09;100.00
2192;BME280;1102;49.718;11.902;2023-04-02T13:46:52;96437.69;;;4.14;100.00
2192;BME280;1102;49.718;11.902;2023-04-02T13:49:21;96431.22;;;4.26;100.00
2192;BME280;1102;49.718;11.902;2023-04-02T13:51:50;96406.91;;;4.06;100.00
2192;BME280;1102;49.718;11.902;2023-04-02T13:54:40;96441.06;;;4.34;100.00
2192;BME280;1102;49.718;11.902;2023-04-02T13:57:08;96404.22;;;4.11;100.00
2192;BME280;1102;49.718;11.902;2023-04-02T13:59:36;96398.41;;;3.96;100.00
2192;BME280;1102;49.718;11.902;2023-04-02T14:02:05;96435.41;;;4.27;100.00
2192;BME280;1102;49.718;11.902;2023-04-02T14:04:38;96400.63;;;4.07;100.00
2192;BME280;1102;49.718;11.902;2023-04-02T14:07:19;96453.94;;;4.49;100.00
2192;BME280;1102;49.718;11.902;2023-04-02T14:10:13;96471.69;;;4.52;100.00
2192;BME280;1102;49.718;11.902;2023-04-02T14:23:52;96490.31;;;4.69;100.00
2192;BME280;1102;49.718;11.902;2023-04-02T14:29:19;96486.31;;;5.10;100.00
2192;BME280;1102;49.718;11.902;2023-04-02T14:34:54;96496.59;;;5.52;100.00
2192;BME280;1102;49.718;11.902;2023-04-02T14:40:20;96478.25;;;5.66;100.00
2192;BME280;1102;49.718;11.902;2023-04-02T14:43:01;96491.25;;;5.57;100.00
2192;BME280;1102;49.718;11.902;2023-04-02T14:48:39;96518.50;;;5.75;100.00
2192;BME280;1102;49.718;11.902;2023-04-02T14:51:38;96525.22;;;5.35;100.00
2192;BME280;1102;49.718;11.902;2023-04-02T15:02:46;96521.34;;;6.20;100.00
2192;BME280;1102;49.718;11.902;2023-04-02T15:05:20;96543.22;;;6.43;100.00
2192;BME280;1102;49.718;11.902;2023-04-02T15:07:56;96542.94;;;6.17;100.00
2192;BME280;1102;49.718;11.902;2023-04-02T15:12:59;96490.38;;;5.48;100.00
2192;BME280;1102;49.718;11.902;2023-04-02T15:16:02;96540.66;;;6.51;100.00
2192;BME280;1102;49.718;11.902;2023-04-02T15:18:31;96551.34;;;5.86;100.00
2192;BME280;1102;49.718;11.902;2023-04-02T15:24:00;96571.06;;;5.38;100.00
2192;BME280;1102;49.718;11.902;2023-04-02T15:41:00;96595.41;;;4.39;100.00
2192;BME280;1102;49.718;11.902;2023-04-02T15:43:43;96594.72;;;4.33;100.00
2192;BME280;1102;49.718;11.902;2023-04-02T15:49:12;96553.53;;;3.67;100.00
2192;BME280;1102;49.718;11.902;2023-04-02T15:55:25;96574.09;;;3.79;100.00
2192;BME280;1102;49.718;11.902;2023-04-02T15:58:07;96601.28;;;4.07;100.00
2192;BME280;1102;49.718;11.902;2023-04-02T16:00:45;96601.50;;;4.10;100.00
2192;BME280;1102;49.718;11.902;2023-04-02T16:06:25;96606.75;;;3.81;100.00
2192;BME280;1102;49.718;11.902;2023-04-02T16:11:33;96628.94;;;3.84;100.00
2192;BME280;1102;49.718;11.902;2023-04-02T16:14:28;96630.34;;;3.76;100.00
2192;BME280;1102;49.718;11.902;2023-04-02T16:17:04;96621.84;;;3.61;100.00
2192;BME280;1102;49.718;11.902;2023-04-02T16:19:52;96543.63;;;3.01;100.00
2192;BME280;1102;49.718;11.902;2023-04-02T16:22:27;96640.94;;;3.56;100.00
2192;BME280;1102;49.718;11.902;2023-04-02T16:25:03;96649.63;;;3.51;100.00
2192;BME280;1102;49.718;11.902;2023-04-02T16:27:37;96605.19;;;3.12;100.00
2192;BME280;1102;49.718;11.902;2023-04-02T16:35:54;96656.28;;;3.29;100.00
2192;BME280;1102;49.718;11.902;2023-04-02T16:43:59;96678.84;;;3.14;100.00
2192;BME280;1102;49.718;11.902;2023-04-02T16:46:49;96687.53;;;3.00;100.00
2192;BME280;1102;49.718;11.902;2023-04-02T16:49:39;96690.88;;;3.05;100.00
2192;BME280;1102;49.718;11.902;2023-04-02T17:00:48;96705.34;;;2.87;100.00
2192;BME280;1102;49.718;11.902;2023-04-02T17:06:25;96723.16;;;2.70;100.00
2192;BME280;1102;49.718;11.902;2023-04-02T17:09:05;96714.03;;;2.52;100.00
2192;BME280;1102;49.718;11.902;2023-04-02T17:12:07;96735.94;;;2.72;100.00
2192;BME280;1102;49.718;11.902;2023-04-02T17:14:45;96728.94;;;2.57;100.00
2192;BME280;1102;49.718;11.902;2023-04-02T17:17:16;96741.69;;;2.53;100.00
2192;BME280;1102;49.718;11.902;2023-04-02T17:19:43;96717.75;;;2.31;100.00
2192;BME280;1102;49.718;11.902;2023-04-02T17:22:16;96753.19;;;2.52;100.00
2192;BME280;1102;49.718;11.902;2023-04-02T17:24:57;96750.09;;;2.45;100.00
2192;BME280;1102;49.718;11.902;2023-04-02T17:30:04;96728.47;;;2.19;100.00
2192;BME280;1102;49.718;11.902;2023-04-02T17:32:37;96758.19;;;2.28;100.00
2192;BME280;1102;49.718;11.902;2023-04-02T17:37:53;96776.72;;;2.32;100.00
2192;BME280;1102;49.718;11.902;2023-04-02T17:52:23;96799.41;;;2.47;100.00
2192;BME280;1102;49.718;11.902;2023-04-02T17:57:58;96810.88;;;2.20;100.00
2192;BME280;1102;49.718;11.902;2023-04-02T18:00:40;96804.88;;;2.20;100.00
2192;BME280;1102;49.718;11.902;2023-04-02T18:03:34;96817.38;;;2.13;100.00
2192;BME280;1102;49.718;11.902;2023-04-02T18:06:20;96815.06;;;2.16;100.00
2192;BME280;1102;49.718;11.902;2023-04-02T18:20:33;96839.84;;;2.19;100.00
2192;BME280;1102;49.718;11.902;2023-04-02T18:31:00;96852.34;;;2.01;100.00
2192;BME280;1102;49.718;11.902;2023-04-02T18:33:48;96806.13;;;1.82;100.00
2192;BME280;1102;49.718;11.902;2023-04-02T18:36:41;96842.66;;;1.97;100.00
2192;BME280;1102;49.718;11.902;2023-04-02T18:39:26;96856.28;;;2.14;100.00
2192;BME280;1102;49.718;11.902;2023-04-02T18:47:46;96826.47;;;1.85;100.00
2192;BME280;1102;49.718;11.902;2023-04-02T18:52:54;96830.63;;;1.75;100.00